sensor_id;sensor_type;location;lat;lon;timestamp;temperature;humidity
19192;DHT22;9728;48.194;16.346;2024-02-16T00:03:40;16.30;66.90
19192;DHT22;9728;48.194;16.346;2024-02-16T00:08:45;16.20;66.90
19192;DHT22;9728;48.194;16.346;2024-02-16T00:13:49;16.20;67.00
19192;DHT22;9728;48.194;16.346;2024-02-16T00:18:52;16.20;66.90
19192;DHT22;9728;48.194;16.346;2024-02-16T00:23:57;16.20;67.00
19192;DHT22;9728;48.194;16.346;2024-02-16T00:29:00;16.10;67.00
19192;DHT22;9728;48.194;16.346;2024-02-16T00:34:04;16.10;67.00
19192;DHT22;9728;48.194;16.346;2024-02-16T00:39:08;16.10;67.00
19192;DHT22;9728;48.194;16.346;2024-02-16T00:44:12;16.10;67.10
19192;DHT22;9728;48.194;16.346;2024-02-16T00:49:15;16.00;67.00
19192;DHT22;9728;48.194;16.346;2024-02-16T01:07:45;16.00;67.40
19192;DHT22;9728;48.194;16.346;2024-02-16T01:12:49;15.90;67.20
19192;DHT22;9728;48.194;16.346;2024-02-16T01:17:54;15.90;67.20
19192;DHT22;9728;48.194;16.346;2024-02-16T01:22:59;15.80;67.10
19192;DHT22;9728;48.194;16.346;2024-02-16T01:28:03;15.70;67.20
19192;DHT22;9728;48.194;16.346;2024-02-16T01:33:07;15.70;67.20
19192;DHT22;9728;48.194;16.346;2024-02-16T01:38:11;15.70;67.20
19192;DHT22;9728;48.194;16.346;2024-02-16T01:43:18;15.60;67.30
19192;DHT22;9728;48.194;16.346;2024-02-16T01:48:22;15.60;67.40
19192;DHT22;9728;48.194;16.346;2024-02-16T01:53:27;15.60;67.20
19192;DHT22;9728;48.194;16.346;2024-02-16T01:58:31;15.50;67.30
19192;DHT22;9728;48.194;16.346;2024-02-16T02:03:34;15.50;67.30
19192;DHT22;9728;48.194;16.346;2024-02-16T02:08:39;15.50;67.40
19192;DHT22;9728;48.194;16.346;2024-02-16T02:13:42;15.40;67.50
19192;DHT22;9728;48.194;16.346;2024-02-16T02:18:46;15.40;67.50
19192;DHT22;9728;48.194;16.346;2024-02-16T02:23:51;15.40;67.50
19192;DHT22;9728;48.194;16.346;2024-02-16T02:28:55;15.40;67.70
19192;DHT22;9728;48.194;16.346;2024-02-16T02:33:58;15.40;67.70
19192;DHT22;9728;48.194;16.346;2024-02-16T02:39:03;15.30;67.60
19192;DHT22;9728;48.194;16.346;2024-02-16T02:44:08;15.30;67.70
19192;DHT22;9728;48.194;16.346;2024-02-16T02:49:11;15.30;67.70
19192;DHT22;9728;48.194;16.346;2024-02-16T02:54:16;15.30;67.70
19192;DHT22;9728;48.194;16.346;2024-02-16T02:59:20;15.30;67.80
19192;DHT22;9728;48.194;16.346;2024-02-16T03:04:23;15.30;67.70
19192;DHT22;9728;48.194;16.346;2024-02-16T03:09:28;15.20;67.70
19192;DHT22;9728;48.194;16.346;2024-02-16T03:14:31;15.30;67.80
19192;DHT22;9728;48.194;16.346;2024-02-16T03:19:36;15.20;67.70
19192;DHT22;9728;48.194;16.346;2024-02-16T03:24:41;15.20;67.70
19192;DHT22;9728;48.194;16.346;2024-02-16T03:29:44;15.20;67.80
19192;DHT22;9728;48.194;16.346;2024-02-16T03:34:47;15.10;67.70
19192;DHT22;9728;48.194;16.346;2024-02-16T03:39:52;15.10;67.70
19192;DHT22;9728;48.194;16.346;2024-02-16T03:44:56;15.10;67.80
19192;DHT22;9728;48.194;16.346;2024-02-16T03:50:00;15.10;67.80
19192;DHT22;9728;48.194;16.346;2024-02-16T03:55:06;15.10;67.80
19192;DHT22;9728;48.194;16.346;2024-02-16T04:00:11;15.10;67.90
19192;DHT22;9728;48.194;16.346;2024-02-16T04:05:15;15.00;67.80
19192;DHT22;9728;48.194;16.346;2024-02-16T04:10:20;15.00;67.80
19192;DHT22;9728;48.194;16.346;2024-02-16T04:15:24;15.00;67.90
19192;DHT22;9728;48.194;16.346;2024-02-16T04:20:28;15.00;67.90
19192;DHT22;9728;48.194;16.346;2024-02-16T04:25:32;15.00;67.90
19192;DHT22;9728;48.194;16.346;2024-02-16T04:30:36;14.90;67.90
19192;DHT22;9728;48.194;16.346;2024-02-16T04:35:39;14.90;67.90
19192;DHT22;9728;48.194;16.346;2024-02-16T04:40:44;14.90;67.90
19192;DHT22;9728;48.194;16.346;2024-02-16T04:45:47;14.90;68.00
19192;DHT22;9728;48.194;16.346;2024-02-16T04:50:51;14.80;67.90
19192;DHT22;9728;48.194;16.346;2024-02-16T04:55:56;14.80;67.90
19192;DHT22;9728;48.194;16.346;2024-02-16T05:00:59;14.80;68.00
19192;DHT22;9728;48.194;16.346;2024-02-16T05:06:03;14.80;67.90
19192;DHT22;9728;48.194;16.346;2024-02-16T05:11:08;14.80;68.00
19192;DHT22;9728;48.194;16.346;2024-02-16T05:16:12;14.70;68.00
19192;DHT22;9728;48.194;16.346;2024-02-16T05:21:15;14.70;68.00
19192;DHT22;9728;48.194;16.346;2024-02-16T05:26:21;14.70;68.00
19192;DHT22;9728;48.194;16.346;2024-02-16T05:31:24;14.70;68.10
19192;DHT22;9728;48.194;16.346;2024-02-16T05:36:27;14.70;68.10
19192;DHT22;9728;48.194;16.346;2024-02-16T05:41:38;14.60;68.00
19192;DHT22;9728;48.194;16.346;2024-02-16T05:46:44;14.60;68.10
19192;DHT22;9728;48.194;16.346;2024-02-16T05:51:47;14.60;68.10
19192;DHT22;9728;48.194;16.346;2024-02-16T05:57:21;14.60;68.10
19192;DHT22;9728;48.194;16.346;2024-02-16T06:02:25;14.60;68.30
19192;DHT22;9728;48.194;16.346;2024-02-16T06:07:29;14.60;68.20
19192;DHT22;9728;48.194;16.346;2024-02-16T06:12:36;14.50;68.20
19192;DHT22;9728;48.194;16.346;2024-02-16T06:17:40;14.50;68.40
19192;DHT22;9728;48.194;16.346;2024-02-16T06:22:43;14.50;68.60
19192;DHT22;9728;48.194;16.346;2024-02-16T06:27:48;14.50;68.50
19192;DHT22;9728;48.194;16.346;2024-02-16T06:32:52;14.50;69.30
19192;DHT22;9728;48.194;16.346;2024-02-16T06:37:57;14.60;68.40
19192;DHT22;9728;48.194;16.346;2024-02-16T06:43:02;14.60;68.70
19192;DHT22;9728;48.194;16.346;2024-02-16T06:48:07;14.60;68.60
19192;DHT22;9728;48.194;16.346;2024-02-16T06:53:11;14.60;68.50
19192;DHT22;9728;48.194;16.346;2024-02-16T06:58:16;14.60;68.50
19192;DHT22;9728;48.194;16.346;2024-02-16T07:03:19;14.60;68.60
19192;DHT22;9728;48.194;16.346;2024-02-16T07:08:22;14.60;68.60
19192;DHT22;9728;48.194;16.346;2024-02-16T07:13:29;14.60;68.50
19192;DHT22;9728;48.194;16.346;2024-02-16T07:18:33;14.60;68.60
19192;DHT22;9728;48.194;16.346;2024-02-16T07:23:37;14.60;68.60
19192;DHT22;9728;48.194;16.346;2024-02-16T07:28:41;14.60;68.60
19192;DHT22;9728;48.194;16.346;2024-02-16T07:33:45;14.60;68.70
19192;DHT22;9728;48.194;16.346;2024-02-16T07:38:48;14.70;68.80
19192;DHT22;9728;48.194;16.346;2024-02-16T07:43:53;14.70;68.80
19192;DHT22;9728;48.194;16.346;2024-02-16T07:48:57;14.70;68.80
19192;DHT22;9728;48.194;16.346;2024-02-16T07:54:00;14.80;68.80
19192;DHT22;9728;48.194;16.346;2024-02-16T07:59:06;14.80;68.80
19192;DHT22;9728;48.194;16.346;2024-02-16T08:04:10;14.80;68.90
19192;DHT22;9728;48.194;16.346;2024-02-16T08:09:13;14.90;68.90
19192;DHT22;9728;48.194;16.346;2024-02-16T08:14:19;14.90;69.00
19192;DHT22;9728;48.194;16.346;2024-02-16T08:19:23;15.00;69.10
19192;DHT22;9728;48.194;16.346;2024-02-16T08:24:27;15.10;69.20
19192;DHT22;9728;48.194;16.346;2024-02-16T08:29:32;15.10;69.20
19192;DHT22;9728;48.194;16.346;2024-02-16T08:34:37;15.20;69.30
19192;DHT22;9728;48.194;16.346;2024-02-16T08:39:41;15.30;69.40
19192;DHT22;9728;48.194;16.346;2024-02-16T08:44:45;15.40;70.30
19192;DHT22;9728;48.194;16.346;2024-02-16T08:49:50;15.50;70.10
19192;DHT22;9728;48.194;16.346;2024-02-16T08:54:54;15.60;69.90
19192;DHT22;9728;48.194;16.346;2024-02-16T08:59:59;15.70;69.70
19192;DHT22;9728;48.194;16.346;2024-02-16T09:05:03;15.90;69.80
19192;DHT22;9728;48.194;16.346;2024-02-16T09:10:07;16.00;69.70
19192;DHT22;9728;48.194;16.346;2024-02-16T09:15:12;16.20;69.70
19192;DHT22;9728;48.194;16.346;2024-02-16T09:20:16;16.30;69.60
19192;DHT22;9728;48.194;16.346;2024-02-16T09:25:24;16.40;69.50
19192;DHT22;9728;48.194;16.346;2024-02-16T09:30:29;16.60;69.40
19192;DHT22;9728;48.194;16.346;2024-02-16T09:35:34;16.70;69.30
19192;DHT22;9728;48.194;16.346;2024-02-16T09:40:37;16.80;69.20
19192;DHT22;9728;48.194;16.346;2024-02-16T09:45:42;17.00;69.40
19192;DHT22;9728;48.194;16.346;2024-02-16T09:50:46;17.20;69.20
19192;DHT22;9728;48.194;16.346;2024-02-16T09:55:49;17.30;69.20
19192;DHT22;9728;48.194;16.346;2024-02-16T10:00:55;17.50;72.10
19192;DHT22;9728;48.194;16.346;2024-02-16T10:06:07;17.80;73.90
19192;DHT22;9728;48.194;16.346;2024-02-16T10:11:11;18.20;74.40
19192;DHT22;9728;48.194;16.346;2024-02-16T10:16:18;18.70;72.20
19192;DHT22;9728;48.194;16.346;2024-02-16T10:21:25;19.10;70.50
19192;DHT22;9728;48.194;16.346;2024-02-16T10:26:29;19.50;69.10
19192;DHT22;9728;48.194;16.346;2024-02-16T10:31:34;19.80;68.60
19192;DHT22;9728;48.194;16.346;2024-02-16T10:36:38;20.10;68.90
19192;DHT22;9728;48.194;16.346;2024-02-16T10:41:44;20.30;70.70
19192;DHT22;9728;48.194;16.346;2024-02-16T10:46:50;20.60;69.80
19192;DHT22;9728;48.194;16.346;2024-02-16T10:51:55;21.10;71.20
19192;DHT22;9728;48.194;16.346;2024-02-16T10:57:00;21.60;71.30
19192;DHT22;9728;48.194;16.346;2024-02-16T11:02:06;22.20;70.90
19192;DHT22;9728;48.194;16.346;2024-02-16T11:07:16;22.80;70.00
19192;DHT22;9728;48.194;16.346;2024-02-16T11:12:21;23.30;68.60
19192;DHT22;9728;48.194;16.346;2024-02-16T11:17:26;23.80;68.00
19192;DHT22;9728;48.194;16.346;2024-02-16T11:22:29;24.20;66.70
19192;DHT22;9728;48.194;16.346;2024-02-16T11:27:33;24.50;66.20
19192;DHT22;9728;48.194;16.346;2024-02-16T11:32:42;24.80;64.30
19192;DHT22;9728;48.194;16.346;2024-02-16T11:37:46;24.90;60.90
19192;DHT22;9728;48.194;16.346;2024-02-16T11:42:57;24.90;60.80
19192;DHT22;9728;48.194;16.346;2024-02-16T11:48:08;24.80;59.00
19192;DHT22;9728;48.194;16.346;2024-02-16T11:53:17;24.60;58.70
19192;DHT22;9728;48.194;16.346;2024-02-16T11:58:22;24.40;59.00
19192;DHT22;9728;48.194;16.346;2024-02-16T12:03:27;24.10;59.20
19192;DHT22;9728;48.194;16.346;2024-02-16T12:08:32;23.90;59.20
19192;DHT22;9728;48.194;16.346;2024-02-16T12:13:36;23.70;59.10
19192;DHT22;9728;48.194;16.346;2024-02-16T12:18:41;23.50;59.10
19192;DHT22;9728;48.194;16.346;2024-02-16T12:23:45;23.30;59.10
19192;DHT22;9728;48.194;16.346;2024-02-16T12:28:49;23.10;59.20
19192;DHT22;9728;48.194;16.346;2024-02-16T12:33:53;23.00;59.40
19192;DHT22;9728;48.194;16.346;2024-02-16T12:38:57;22.80;59.30
19192;DHT22;9728;48.194;16.346;2024-02-16T12:44:01;22.70;59.60
19192;DHT22;9728;48.194;16.346;2024-02-16T12:49:06;22.50;59.60
19192;DHT22;9728;48.194;16.346;2024-02-16T12:54:09;22.50;62.30
19192;DHT22;9728;48.194;16.346;2024-02-16T12:59:16;22.50;63.30
19192;DHT22;9728;48.194;16.346;2024-02-16T13:04:21;22.70;61.80
19192;DHT22;9728;48.194;16.346;2024-02-16T13:09:25;22.80;60.50
19192;DHT22;9728;48.194;16.346;2024-02-16T13:14:30;22.80;60.10
19192;DHT22;9728;48.194;16.346;2024-02-16T13:19:35;22.70;59.80
19192;DHT22;9728;48.194;16.346;2024-02-16T13:24:38;22.60;59.60
19192;DHT22;9728;48.194;16.346;2024-02-16T13:29:42;22.60;59.70
19192;DHT22;9728;48.194;16.346;2024-02-16T13:34:47;22.50;59.50
19192;DHT22;9728;48.194;16.346;2024-02-16T13:39:50;22.40;59.30
19192;DHT22;9728;48.194;16.346;2024-02-16T13:44:54;22.30;59.30
19192;DHT22;9728;48.194;16.346;2024-02-16T13:49:59;22.20;59.30
19192;DHT22;9728;48.194;16.346;2024-02-16T13:55:03;22.10;59.30
19192;DHT22;9728;48.194;16.346;2024-02-16T14:00:09;22.00;60.00
19192;DHT22;9728;48.194;16.346;2024-02-16T14:05:17;22.00;59.90
19192;DHT22;9728;48.194;16.346;2024-02-16T14:10:20;21.90;59.50
19192;DHT22;9728;48.194;16.346;2024-02-16T14:15:24;21.90;59.60
19192;DHT22;9728;48.194;16.346;2024-02-16T14:20:34;21.90;59.60
19192;DHT22;9728;48.194;16.346;2024-02-16T14:25:37;21.70;59.40
19192;DHT22;9728;48.194;16.346;2024-02-16T14:30:42;21.70;59.40
19192;DHT22;9728;48.194;16.346;2024-02-16T14:35:47;21.60;59.30
19192;DHT22;9728;48.194;16.346;2024-02-16T14:40:50;21.60;59.40
19192;DHT22;9728;48.194;16.346;2024-02-16T14:45:54;21.50;59.60
19192;DHT22;9728;48.194;16.346;2024-02-16T14:51:02;21.40;59.40
19192;DHT22;9728;48.194;16.346;2024-02-16T14:56:06;21.40;59.40
19192;DHT22;9728;48.194;16.346;2024-02-16T15:01:11;21.40;59.40
19192;DHT22;9728;48.194;16.346;2024-02-16T15:06:16;21.40;59.40
19192;DHT22;9728;48.194;16.346;2024-02-16T15:11:20;21.30;59.20
19192;DHT22;9728;48.194;16.346;2024-02-16T15:16:23;21.20;59.30
19192;DHT22;9728;48.194;16.346;2024-02-16T15:21:28;21.20;59.30
19192;DHT22;9728;48.194;16.346;2024-02-16T15:26:32;21.20;59.10
19192;DHT22;9728;48.194;16.346;2024-02-16T15:31:35;21.10;59.20
19192;DHT22;9728;48.194;16.346;2024-02-16T15:36:40;21.10;59.10
19192;DHT22;9728;48.194;16.346;2024-02-16T15:41:44;21.00;59.00
19192;DHT22;9728;48.194;16.346;2024-02-16T15:46:49;21.00;59.20
19192;DHT22;9728;48.194;16.346;2024-02-16T15:51:54;20.90;59.10
19192;DHT22;9728;48.194;16.346;2024-02-16T15:56:57;20.90;59.10
19192;DHT22;9728;48.194;16.346;2024-02-16T16:02:02;20.80;59.20
19192;DHT22;9728;48.194;16.346;2024-02-16T16:07:08;20.80;59.20
19192;DHT22;9728;48.194;16.346;2024-02-16T16:12:13;20.80;59.10
19192;DHT22;9728;48.194;16.346;2024-02-16T16:17:17;20.70;59.20
19192;DHT22;9728;48.194;16.346;2024-02-16T16:22:22;20.70;59.20
19192;DHT22;9728;48.194;16.346;2024-02-16T16:27:25;20.60;59.10
19192;DHT22;9728;48.194;16.346;2024-02-16T16:32:29;20.50;59.20
19192;DHT22;9728;48.194;16.346;2024-02-16T16:37:34;20.50;59.20
19192;DHT22;9728;48.194;16.346;2024-02-16T16:42:38;20.50;59.10
19192;DHT22;9728;48.194;16.346;2024-02-16T16:47:41;20.40;59.20
19192;DHT22;9728;48.194;16.346;2024-02-16T16:52:46;20.40;59.20
19192;DHT22;9728;48.194;16.346;2024-02-16T16:57:50;20.30;59.20
19192;DHT22;9728;48.194;16.346;2024-02-16T17:02:53;20.30;59.90
19192;DHT22;9728;48.194;16.346;2024-02-16T17:07:58;20.20;59.30
19192;DHT22;9728;48.194;16.346;2024-02-16T17:13:02;20.20;59.30
19192;DHT22;9728;48.194;16.346;2024-02-16T17:18:05;20.10;59.30
19192;DHT22;9728;48.194;16.346;2024-02-16T17:23:10;20.10;59.30
19192;DHT22;9728;48.194;16.346;2024-02-16T17:28:14;20.00;59.30
19192;DHT22;9728;48.194;16.346;2024-02-16T17:33:18;20.00;59.40
19192;DHT22;9728;48.194;16.346;2024-02-16T17:38:23;19.90;59.40
19192;DHT22;9728;48.194;16.346;2024-02-16T17:43:27;19.90;59.50
19192;DHT22;9728;48.194;16.346;2024-02-16T17:48:30;19.80;59.50
19192;DHT22;9728;48.194;16.346;2024-02-16T17:53:37;19.70;59.50
19192;DHT22;9728;48.194;16.346;2024-02-16T17:58:40;19.70;59.50
19192;DHT22;9728;48.194;16.346;2024-02-16T18:03:44;19.60;59.50
19192;DHT22;9728;48.194;16.346;2024-02-16T18:08:49;19.60;59.60
19192;DHT22;9728;48.194;16.346;2024-02-16T18:13:52;19.50;59.60
19192;DHT22;9728;48.194;16.346;2024-02-16T18:18:56;19.50;59.70
19192;DHT22;9728;48.194;16.346;2024-02-16T18:24:03;19.40;59.70
19192;DHT22;9728;48.194;16.346;2024-02-16T18:29:07;19.40;59.80
19192;DHT22;9728;48.194;16.346;2024-02-16T18:34:11;19.30;59.80
19192;DHT22;9728;48.194;16.346;2024-02-16T18:39:16;19.30;59.80
19192;DHT22;9728;48.194;16.346;2024-02-16T18:44:19;19.20;60.10
19192;DHT22;9728;48.194;16.346;2024-02-16T18:49:23;19.20;60.40
19192;DHT22;9728;48.194;16.346;2024-02-16T18:54:28;19.10;60.50
19192;DHT22;9728;48.194;16.346;2024-02-16T18:59:31;19.10;60.40
19192;DHT22;9728;48.194;16.346;2024-02-16T19:04:35;19.10;60.40
19192;DHT22;9728;48.194;16.346;2024-02-16T19:09:40;19.00;60.30
19192;DHT22;9728;48.194;16.346;2024-02-16T19:14:43;19.00;60.30
19192;DHT22;9728;48.194;16.346;2024-02-16T19:19:47;19.00;60.30
19192;DHT22;9728;48.194;16.346;2024-02-16T19:24:52;19.00;60.40
19192;DHT22;9728;48.194;16.346;2024-02-16T19:29:55;18.90;60.40
19192;DHT22;9728;48.194;16.346;2024-02-16T19:35:00;18.80;60.50
19192;DHT22;9728;48.194;16.346;2024-02-16T19:40:07;18.80;60.50
19192;DHT22;9728;48.194;16.346;2024-02-16T19:45:12;18.70;60.60
19192;DHT22;9728;48.194;16.346;2024-02-16T19:50:23;18.70;60.70
19192;DHT22;9728;48.194;16.346;2024-02-16T19:55:28;18.70;60.70
19192;DHT22;9728;48.194;16.346;2024-02-16T20:00:32;18.60;60.80
19192;DHT22;9728;48.194;16.346;2024-02-16T20:05:37;18.60;61.10
19192;DHT22;9728;48.194;16.346;2024-02-16T20:10:41;18.60;61.10
19192;DHT22;9728;48.194;16.346;2024-02-16T20:15:45;18.60;62.00
19192;DHT22;9728;48.194;16.346;2024-02-16T20:20:48;18.60;61.70
19192;DHT22;9728;48.194;16.346;2024-02-16T20:25:53;18.60;61.50
19192;DHT22;9728;48.194;16.346;2024-02-16T20:30:57;18.70;61.30
19192;DHT22;9728;48.194;16.346;2024-02-16T20:36:06;18.60;61.30
19192;DHT22;9728;48.194;16.346;2024-02-16T20:41:11;18.60;61.20
19192;DHT22;9728;48.194;16.346;2024-02-16T20:46:15;18.50;61.30
19192;DHT22;9728;48.194;16.346;2024-02-16T20:51:18;18.50;61.30
19192;DHT22;9728;48.194;16.346;2024-02-16T20:56:23;18.50;61.30
19192;DHT22;9728;48.194;16.346;2024-02-16T21:01:26;18.40;61.60
19192;DHT22;9728;48.194;16.346;2024-02-16T21:06:30;18.40;61.40
19192;DHT22;9728;48.194;16.346;2024-02-16T21:11:35;18.40;61.50
19192;DHT22;9728;48.194;16.346;2024-02-16T21:16:39;18.30;61.50
19192;DHT22;9728;48.194;16.346;2024-02-16T21:21:45;18.20;61.60
19192;DHT22;9728;48.194;16.346;2024-02-16T21:26:53;18.20;61.70
19192;DHT22;9728;48.194;16.346;2024-02-16T21:31:57;18.20;61.90
19192;DHT22;9728;48.194;16.346;2024-02-16T21:37:00;18.10;61.80
19192;DHT22;9728;48.194;16.346;2024-02-16T21:42:07;18.10;61.90
19192;DHT22;9728;48.194;16.346;2024-02-16T21:47:12;18.00;61.90
19192;DHT22;9728;48.194;16.346;2024-02-16T21:52:16;18.00;62.00
19192;DHT22;9728;48.194;16.346;2024-02-16T21:57:20;17.90;62.00
19192;DHT22;9728;48.194;16.346;2024-02-16T22:02:24;17.90;62.10
19192;DHT22;9728;48.194;16.346;2024-02-16T22:07:28;17.80;62.10
19192;DHT22;9728;48.194;16.346;2024-02-16T22:12:33;17.80;62.30
19192;DHT22;9728;48.194;16.346;2024-02-16T22:17:36;17.70;62.30
19192;DHT22;9728;48.194;16.346;2024-02-16T22:22:40;17.70;62.30
19192;DHT22;9728;48.194;16.346;2024-02-16T22:27:45;17.70;62.50
19192;DHT22;9728;48.194;16.346;2024-02-16T22:32:48;17.70;62.60
19192;DHT22;9728;48.194;16.346;2024-02-16T22:37:51;17.60;62.50
19192;DHT22;9728;48.194;16.346;2024-02-16T22:42:57;17.60;62.60
19192;DHT22;9728;48.194;16.346;2024-02-16T22:48:01;17.60;62.70
19192;DHT22;9728;48.194;16.346;2024-02-16T22:53:05;17.60;62.70
19192;DHT22;9728;48.194;16.346;2024-02-16T22:58:10;17.50;62.70
19192;DHT22;9728;48.194;16.346;2024-02-16T23:03:14;17.50;62.90
19192;DHT22;9728;48.194;16.346;2024-02-16T23:08:18;17.50;62.90
19192;DHT22;9728;48.194;16.346;2024-02-16T23:13:23;17.40;62.90
19192;DHT22;9728;48.194;16.346;2024-02-16T23:18:28;17.40;63.00
19192;DHT22;9728;48.194;16.346;2024-02-16T23:23:31;17.40;63.00
19192;DHT22;9728;48.194;16.346;2024-02-16T23:28:36;17.40;63.10
19192;DHT22;9728;48.194;16.346;2024-02-16T23:33:41;17.40;63.20
19192;DHT22;9728;48.194;16.346;2024-02-16T23:38:45;17.40;63.30
19192;DHT22;9728;48.194;16.346;2024-02-16T23:43:50;17.30;63.20
19192;DHT22;9728;48.194;16.346;2024-02-16T23:48:56;17.30;63.40
19192;DHT22;9728;48.194;16.346;2024-02-16T23:54:00;17.30;63.30
19192;DHT22;9728;48.194;16.346;2024-02-16T23:59:05;17.20;63.30
